createdAt,value
2023-04-05T00:00:39.871Z,10.80
2023-04-05T00:03:10.053Z,10.37
2023-04-05T00:05:37.340Z,10.07
2023-04-05T00:08:08.154Z,10.70
2023-04-05T00:10:36.142Z,10.33
2023-04-05T00:13:03.285Z,9.80
2023-04-05T00:15:31.935Z,10.10
2023-04-05T00:18:00.144Z,9.80
2023-04-05T00:20:27.447Z,9.70
2023-04-05T00:22:54.613Z,10.60
2023-04-05T00:25:22.618Z,11.47
2023-04-05T00:27:49.777Z,10.27
2023-04-05T00:30:20.941Z,10.00
2023-04-05T00:32:51.643Z,10.03
2023-04-05T00:35:20.269Z,9.97
2023-04-05T00:37:47.541Z,10.27
2023-04-05T00:40:14.886Z,9.73
2023-04-05T00:42:42.478Z,8.80
2023-04-05T00:45:09.980Z,9.33
2023-04-05T00:47:37.783Z,9.37
2023-04-05T00:50:06.509Z,9.43
2023-04-05T00:52:33.747Z,8.43
2023-04-05T00:55:01.368Z,8.97
2023-04-05T00:57:30.260Z,8.93
2023-04-05T01:00:01.654Z,7.50
2023-04-05T01:02:36.606Z,8.70
2023-04-05T01:05:12.393Z,8.37
2023-04-05T01:07:47.478Z,7.43
2023-04-05T01:10:19.418Z,7.63
2023-04-05T01:12:47.039Z,8.03
2023-04-05T01:15:14.235Z,7.03
2023-04-05T01:17:44.260Z,6.67
2023-04-05T01:20:12.353Z,7.67
2023-04-05T01:22:52.007Z,7.07
2023-04-05T01:25:28.244Z,6.63
2023-04-05T01:28:08.172Z,6.93
2023-04-05T01:30:37.556Z,6.67
2023-04-05T01:33:11.069Z,6.70
2023-04-05T01:35:52.083Z,6.73
2023-04-05T01:38:25.133Z,6.60
2023-04-05T01:40:53.568Z,6.60
2023-04-05T01:43:20.846Z,7.43
2023-04-05T01:45:48.265Z,6.90
2023-04-05T01:48:15.983Z,7.37
2023-04-05T01:50:43.815Z,7.33
2023-04-05T01:53:11.282Z,7.03
2023-04-05T01:55:38.593Z,7.03
2023-04-05T01:58:06.470Z,6.87
2023-04-05T02:00:33.750Z,7.07
2023-04-05T02:03:01.176Z,6.93
2023-04-05T02:05:28.459Z,6.57
2023-04-05T02:07:55.707Z,6.63
2023-04-05T02:10:23.416Z,6.93
2023-04-05T02:12:51.011Z,7.20
2023-04-05T02:15:18.249Z,7.00
2023-04-05T02:17:48.266Z,6.87
2023-04-05T02:20:15.609Z,6.67
2023-04-05T02:22:45.140Z,7.10
2023-04-05T02:25:13.070Z,6.60
2023-04-05T02:27:40.668Z,6.17
2023-04-05T02:30:08.529Z,5.90
2023-04-05T02:32:36.148Z,6.70
2023-04-05T02:35:03.941Z,6.13
2023-04-05T02:37:31.374Z,6.63
2023-04-05T02:39:58.526Z,7.30
2023-04-05T02:42:25.827Z,6.40
2023-04-05T02:44:53.475Z,6.07
2023-04-05T02:47:22.398Z,5.80
2023-04-05T02:49:59.178Z,6.20
2023-04-05T02:52:32.233Z,6.10
2023-04-05T02:54:59.436Z,6.53
2023-04-05T02:57:30.585Z,5.87
2023-04-05T03:00:05.612Z,6.03
2023-04-05T03:02:33.956Z,6.20
2023-04-05T03:05:04.192Z,6.43
2023-04-05T03:07:33.608Z,6.47
2023-04-05T03:10:04.957Z,5.90
2023-04-05T03:12:32.860Z,6.47
2023-04-05T03:15:01.346Z,6.13
2023-04-05T03:17:37.269Z,5.80
2023-04-05T03:20:09.296Z,6.33
2023-04-05T03:22:37.526Z,6.30
2023-04-05T03:25:06.688Z,6.07
2023-04-05T03:27:41.391Z,6.27
2023-04-05T03:30:17.349Z,6.27
2023-04-05T03:32:54.663Z,6.20
2023-04-05T03:35:44.524Z,6.60
2023-04-05T03:38:13.072Z,6.47
2023-04-05T03:40:53.143Z,6.47
2023-04-05T03:43:20.329Z,6.33
2023-04-05T03:45:47.991Z,6.23
2023-04-05T03:48:19.923Z,6.90
2023-04-05T03:50:48.812Z,6.53
2023-04-05T03:53:19.028Z,6.53
2023-04-05T03:55:50.349Z,6.87
2023-04-05T03:58:21.930Z,7.10
2023-04-05T04:00:49.241Z,6.97
2023-04-05T04:03:22.069Z,7.03
2023-04-05T04:05:53.317Z,6.80
2023-04-05T04:08:21.477Z,6.63
2023-04-05T04:10:49.718Z,6.30
2023-04-05T04:13:24.173Z,6.47
2023-04-05T04:16:00.380Z,6.77
2023-04-05T04:18:46.933Z,6.53
2023-04-05T04:21:33.625Z,7.00
2023-04-05T04:24:21.091Z,7.30
2023-04-05T04:27:10.563Z,6.63
2023-04-05T04:29:49.626Z,6.77
2023-04-05T04:32:52.177Z,6.47
2023-04-05T04:35:47.189Z,7.03
2023-04-05T04:38:34.966Z,7.07
2023-04-05T04:41:12.462Z,6.43
2023-04-05T04:43:51.472Z,7.33
2023-04-05T04:46:47.833Z,7.70
2023-04-05T04:49:21.513Z,7.30
2023-04-05T04:51:48.975Z,7.07
2023-04-05T04:54:20.916Z,6.70
2023-04-05T04:56:48.493Z,7.00
2023-04-05T04:59:16.079Z,6.80
2023-04-05T05:01:45.912Z,7.33
2023-04-05T05:04:13.185Z,7.00
2023-04-05T05:06:41.876Z,6.83
2023-04-05T05:09:09.064Z,6.97
2023-04-05T05:11:45.110Z,6.90
2023-04-05T05:14:13.050Z,7.00
2023-04-05T05:16:40.226Z,6.73
2023-04-05T05:19:07.422Z,6.67
2023-04-05T05:22:00.744Z,7.50
2023-04-05T05:24:27.915Z,6.87
2023-04-05T05:26:55.147Z,8.13
2023-04-05T05:29:22.290Z,8.70
2023-04-05T05:31:50.785Z,8.93
2023-04-05T05:34:19.163Z,8.47
2023-04-05T05:36:53.392Z,7.33
2023-04-05T05:39:20.785Z,7.00
2023-04-05T05:41:48.196Z,6.67
2023-04-05T05:44:15.621Z,6.80
2023-04-05T05:46:42.849Z,7.00
2023-04-05T05:49:10.289Z,7.03
2023-04-05T05:51:37.671Z,7.30
2023-04-05T05:54:04.987Z,6.80
2023-04-05T05:56:32.126Z,7.20
2023-04-05T05:58:59.522Z,6.67
2023-04-05T06:01:27.936Z,7.20
2023-04-05T06:03:55.657Z,6.93
2023-04-05T06:06:23.360Z,7.70
2023-04-05T06:08:51.324Z,7.37
2023-04-05T06:11:23.116Z,7.47
2023-04-05T06:13:52.538Z,6.57
2023-04-05T06:16:21.292Z,6.27
2023-04-05T06:18:48.662Z,6.00
2023-04-05T06:21:16.222Z,5.97
2023-04-05T06:23:43.394Z,5.67
2023-04-05T06:26:18.753Z,5.90
2023-04-05T06:28:48.051Z,5.50
2023-04-05T06:31:21.033Z,6.17
2023-04-05T06:33:48.237Z,6.07
2023-04-05T06:36:15.516Z,5.80
2023-04-05T06:38:42.821Z,6.23
2023-04-05T06:41:10.098Z,6.43
2023-04-05T06:43:37.259Z,6.60
2023-04-05T06:46:08.659Z,6.20
2023-04-05T06:48:36.378Z,6.10
2023-04-05T06:51:04.407Z,6.00
2023-04-05T06:53:31.841Z,7.33
2023-04-05T06:55:59.991Z,6.07
2023-04-05T06:58:27.515Z,7.10
2023-04-05T07:00:55.241Z,6.27
2023-04-05T07:03:22.572Z,6.07
2023-04-05T07:05:59.058Z,6.83
2023-04-05T07:08:28.160Z,6.47
2023-04-05T07:10:55.468Z,7.67
2023-04-05T07:13:24.309Z,5.80
2023-04-05T07:15:52.364Z,6.07
2023-04-05T07:18:19.894Z,5.77
2023-04-05T07:20:51.259Z,6.00
2023-04-05T07:23:18.407Z,5.60
2023-04-05T07:25:45.908Z,5.83
2023-04-05T07:28:13.083Z,5.20
2023-04-05T07:30:40.765Z,5.90
2023-04-05T07:33:08.297Z,5.23
2023-04-05T07:35:35.561Z,5.00
2023-04-05T07:38:02.758Z,5.63
2023-04-05T07:40:29.928Z,5.63
2023-04-05T07:42:57.120Z,5.57
2023-04-05T07:45:24.300Z,5.23
2023-04-05T07:47:51.527Z,5.40
2023-04-05T07:50:19.043Z,5.40
2023-04-05T07:52:46.214Z,5.90
2023-04-05T07:55:13.447Z,5.73
2023-04-05T07:57:40.580Z,5.77
2023-04-05T08:00:12.359Z,6.17
2023-04-05T08:02:43.013Z,5.83
2023-04-05T08:05:10.309Z,6.53
2023-04-05T08:07:37.540Z,5.47
2023-04-05T08:10:05.122Z,5.30
2023-04-05T08:12:34.839Z,5.27
2023-04-05T08:15:03.353Z,5.90
2023-04-05T08:17:30.531Z,5.43
2023-04-05T08:19:57.725Z,5.53
2023-04-05T08:22:28.325Z,5.87
2023-04-05T08:24:55.511Z,5.63
2023-04-05T08:27:22.793Z,5.43
2023-04-05T08:29:50.028Z,5.50
2023-04-05T08:32:17.332Z,5.70
2023-04-05T08:34:44.516Z,5.87
2023-04-05T08:37:11.637Z,5.90
2023-04-05T08:39:38.814Z,5.50
2023-04-05T08:42:16.876Z,5.10
2023-04-05T08:44:46.286Z,5.40
2023-04-05T08:47:18.297Z,5.27
2023-04-05T08:49:45.856Z,5.70
2023-04-05T08:52:13.281Z,6.23
2023-04-05T08:54:40.711Z,5.10
2023-04-05T08:57:08.489Z,5.40
2023-04-05T08:59:40.999Z,4.90
2023-04-05T09:02:17.415Z,5.20
2023-04-05T09:04:45.406Z,6.50
2023-04-05T09:07:14.451Z,4.97
2023-04-05T09:09:46.361Z,5.27
2023-04-05T09:12:14.231Z,4.73
2023-04-05T09:14:41.661Z,4.47
2023-04-05T09:17:10.397Z,4.60
2023-04-05T09:19:37.795Z,4.87
2023-04-05T09:22:08.817Z,4.90
2023-04-05T09:24:44.084Z,4.83
2023-04-05T09:27:17.193Z,5.10
2023-04-05T09:29:48.656Z,5.00
2023-04-05T09:32:18.312Z,4.63
2023-04-05T09:34:45.832Z,4.77
2023-04-05T09:37:22.090Z,4.60
2023-04-05T09:39:51.884Z,4.90
2023-04-05T09:42:23.325Z,4.60
2023-04-05T09:45:07.082Z,4.70
2023-04-05T09:47:41.211Z,4.53
2023-04-05T09:50:15.198Z,4.40
2023-04-05T09:52:43.135Z,4.83
2023-04-05T09:55:11.167Z,4.53
2023-04-05T09:57:43.639Z,4.83
2023-04-05T10:00:21.261Z,4.67
2023-04-05T10:02:53.714Z,4.90
2023-04-05T10:05:25.531Z,4.60
2023-04-05T10:07:53.271Z,4.53
2023-04-05T10:10:22.772Z,4.47
2023-04-05T10:12:50.815Z,4.40
2023-04-05T10:15:19.072Z,5.00
2023-04-05T10:17:49.332Z,4.60
2023-04-05T10:20:19.400Z,4.57
2023-04-05T10:22:56.811Z,4.70
2023-04-05T10:26:11.283Z,4.57
2023-04-05T10:28:43.480Z,5.07
2023-04-05T10:31:38.267Z,4.60
2023-04-05T10:34:08.078Z,4.57
2023-04-05T10:36:59.434Z,4.73
2023-04-05T10:39:34.515Z,4.70
2023-04-05T10:42:11.015Z,4.50
2023-04-05T10:44:40.970Z,4.73
2023-04-05T10:47:13.845Z,4.70
2023-04-05T10:49:45.546Z,4.90
2023-04-05T10:52:13.655Z,5.20
2023-04-05T10:54:41.575Z,4.83
2023-04-05T10:57:10.703Z,4.53
2023-04-05T10:59:46.184Z,4.83
2023-04-05T11:02:15.351Z,4.50
2023-04-05T11:04:42.987Z,4.83
2023-04-05T11:07:18.032Z,5.10
2023-04-05T11:10:05.962Z,5.30
2023-04-05T11:13:03.337Z,5.23
2023-04-05T11:15:32.588Z,5.17
2023-04-05T11:18:18.195Z,5.00
2023-04-05T11:20:53.127Z,5.00
2023-04-05T11:23:22.266Z,4.73
2023-04-05T11:25:57.554Z,4.70
2023-04-05T11:28:25.824Z,4.67
2023-04-05T11:30:57.184Z,4.50
2023-04-05T11:33:52.088Z,4.50
2023-04-05T11:36:47.817Z,5.07
2023-04-05T11:39:23.815Z,5.10
2023-04-05T11:42:17.849Z,4.50
2023-04-05T11:44:51.357Z,4.43
2023-04-05T11:47:23.055Z,4.40
2023-04-05T11:49:51.739Z,4.80
2023-04-05T11:52:21.320Z,5.27
2023-04-05T11:54:49.651Z,5.70
2023-04-05T11:57:23.046Z,5.33
2023-04-05T11:59:53.659Z,5.90
2023-04-05T12:02:21.756Z,4.90
2023-04-05T12:04:59.209Z,5.10
2023-04-05T12:07:36.761Z,5.33
2023-04-05T12:10:13.870Z,5.20
2023-04-05T12:12:43.628Z,5.20
2023-04-05T12:15:18.474Z,5.40
2023-04-05T12:17:49.669Z,5.13
2023-04-05T12:20:25.740Z,6.00
2023-04-05T12:22:56.024Z,5.80
2023-04-05T12:25:24.394Z,5.87
2023-04-05T12:27:51.549Z,5.37
2023-04-05T12:30:23.779Z,5.60
2023-04-05T12:32:53.080Z,5.43
2023-04-05T12:35:35.254Z,5.23
2023-04-05T12:38:06.400Z,5.47
2023-04-05T12:40:40.479Z,6.57
2023-04-05T12:43:09.109Z,5.53
2023-04-05T12:45:43.665Z,5.40
2023-04-05T12:48:20.051Z,5.83
2023-04-05T12:50:48.621Z,5.70
2023-04-05T12:53:24.465Z,5.80
2023-04-05T12:55:53.463Z,5.70
2023-04-05T12:58:22.645Z,5.30
2023-04-05T13:00:49.958Z,5.40
2023-04-05T13:03:20.882Z,5.80
2023-04-05T13:05:49.196Z,5.80
2023-04-05T13:08:19.451Z,5.50
2023-04-05T13:10:48.245Z,5.47
2023-04-05T13:13:16.623Z,5.33
2023-04-05T13:15:45.731Z,5.57
2023-04-05T13:18:14.988Z,6.17
2023-04-05T13:20:42.430Z,5.60
2023-04-05T13:23:12.127Z,5.33
2023-04-05T13:25:41.022Z,5.27
2023-04-05T13:28:09.138Z,5.50
2023-04-05T13:30:36.388Z,5.90
2023-04-05T13:33:06.790Z,5.13
2023-04-05T13:35:34.282Z,5.20
2023-04-05T13:38:04.295Z,5.60
2023-04-05T13:40:32.644Z,5.10
2023-04-05T13:43:00.504Z,5.13
2023-04-05T13:45:28.010Z,5.33
2023-04-05T13:47:55.620Z,5.70
2023-04-05T13:50:23.426Z,5.50
2023-04-05T13:52:51.774Z,5.37
2023-04-05T13:55:19.140Z,5.40
2023-04-05T13:57:46.514Z,5.47
2023-04-05T14:00:14.651Z,4.97
2023-04-05T14:02:42.450Z,5.50
2023-04-05T14:05:10.124Z,5.37
2023-04-05T14:07:37.552Z,5.33
2023-04-05T14:10:06.590Z,5.03
2023-04-05T14:12:34.558Z,4.73
2023-04-05T14:15:01.769Z,5.57
2023-04-05T14:17:29.145Z,5.60
2023-04-05T14:19:56.335Z,5.47
2023-04-05T14:22:23.631Z,5.07
2023-04-05T14:24:50.963Z,5.27
2023-04-05T14:27:18.241Z,5.67
2023-04-05T14:29:45.825Z,5.10
2023-04-05T14:32:13.211Z,5.57
2023-04-05T14:34:40.437Z,5.80
2023-04-05T14:37:07.905Z,5.77
2023-04-05T14:39:35.154Z,5.07
2023-04-05T14:42:02.707Z,5.67
2023-04-05T14:44:29.935Z,5.23
2023-04-05T14:46:57.453Z,5.37
2023-04-05T14:49:24.701Z,5.33
2023-04-05T14:51:51.913Z,5.83
2023-04-05T14:54:19.205Z,5.40
2023-04-05T14:56:46.438Z,5.53
2023-04-05T14:59:13.726Z,5.50
2023-04-05T15:01:44.162Z,5.57
2023-04-05T15:04:12.229Z,5.57
2023-04-05T15:06:39.719Z,5.70
2023-04-05T15:09:06.917Z,5.43
2023-04-05T15:11:38.807Z,5.30
2023-04-05T15:14:08.582Z,5.40
2023-04-05T15:16:38.764Z,5.60
2023-04-05T15:19:06.355Z,4.90
2023-04-05T15:21:33.728Z,5.77
2023-04-05T15:24:02.182Z,5.70
2023-04-05T15:26:29.399Z,5.50
2023-04-05T15:28:56.584Z,5.47
2023-04-05T15:31:24.109Z,5.43
2023-04-05T15:33:51.358Z,5.73
2023-04-05T15:36:18.657Z,5.40
2023-04-05T15:38:46.032Z,5.10
2023-04-05T15:41:13.435Z,5.50
2023-04-05T15:43:41.806Z,4.70
2023-04-05T15:46:09.113Z,5.20
2023-04-05T15:48:36.411Z,5.73
2023-04-05T15:51:03.714Z,5.73
2023-04-05T15:53:30.955Z,5.67
2023-04-05T15:55:58.251Z,5.70
2023-04-05T15:58:25.817Z,5.67
2023-04-05T16:00:53.034Z,5.60
2023-04-05T16:03:20.352Z,5.27
2023-04-05T16:05:47.806Z,6.17
2023-04-05T16:08:14.981Z,6.67
2023-04-05T16:10:42.722Z,5.87
2023-04-05T16:13:10.129Z,7.10
2023-04-05T16:15:37.385Z,6.10
2023-04-05T16:18:04.748Z,5.87
2023-04-05T16:20:32.017Z,5.53
2023-04-05T16:22:59.242Z,4.90
2023-04-05T16:25:26.606Z,5.63
2023-04-05T16:27:54.024Z,5.63
2023-04-05T16:30:21.337Z,5.33
2023-04-05T16:32:51.581Z,5.60
2023-04-05T16:35:19.434Z,5.57
2023-04-05T16:37:46.778Z,5.27
2023-04-05T16:40:14.140Z,5.07
2023-04-05T16:42:41.351Z,5.43
2023-04-05T16:45:09.099Z,5.40
2023-04-05T16:47:36.573Z,5.50
2023-04-05T16:50:04.803Z,5.00
2023-04-05T16:52:32.064Z,5.63
2023-04-05T16:54:59.262Z,5.87
2023-04-05T16:57:26.584Z,5.97
2023-04-05T16:59:53.879Z,5.27
2023-04-05T17:02:21.327Z,5.30
2023-04-05T17:04:48.580Z,5.50
2023-04-05T17:07:15.774Z,5.70
2023-04-05T17:09:43.021Z,5.73
2023-04-05T17:12:12.233Z,5.63
2023-04-05T17:14:39.811Z,5.27
2023-04-05T17:17:07.024Z,5.53
2023-04-05T17:19:34.207Z,5.27
2023-04-05T17:22:01.792Z,5.57
2023-04-05T17:24:34.491Z,5.37
2023-04-05T17:27:02.198Z,5.57
2023-04-05T17:29:29.583Z,5.80
2023-04-05T17:31:57.225Z,5.90
2023-04-05T17:34:24.420Z,5.57
2023-04-05T17:36:52.697Z,5.80
2023-04-05T17:39:19.956Z,5.57
2023-04-05T17:41:47.424Z,6.20
2023-04-05T17:44:15.554Z,5.27
2023-04-05T17:46:48.715Z,5.60
2023-04-05T17:49:21.520Z,5.43
2023-04-05T17:51:48.967Z,5.70
2023-04-05T17:54:16.392Z,5.80
2023-04-05T17:56:43.649Z,6.10
2023-04-05T17:59:11.032Z,5.47
2023-04-05T18:01:38.504Z,5.50
2023-04-05T18:04:06.280Z,5.37
2023-04-05T18:06:34.075Z,5.47
2023-04-05T18:09:02.342Z,5.30
2023-04-05T18:11:29.664Z,5.43
2023-04-05T18:13:56.956Z,6.00
2023-04-05T18:16:24.306Z,5.90
2023-04-05T18:18:51.581Z,6.40
2023-04-05T18:21:18.918Z,6.63
2023-04-05T18:23:46.129Z,7.20
2023-04-05T18:26:14.347Z,6.97
2023-04-05T18:28:41.848Z,6.73
2023-04-05T18:31:10.124Z,6.83
2023-04-05T18:33:40.846Z,7.20
2023-04-05T18:36:08.247Z,6.33
2023-04-05T18:38:35.684Z,5.70
2023-04-05T18:41:03.883Z,5.77
2023-04-05T18:43:31.289Z,5.90
2023-04-05T18:45:58.516Z,5.60
2023-04-05T18:48:26.066Z,6.13
2023-04-05T18:50:56.181Z,6.60
2023-04-05T18:53:23.654Z,5.50
2023-04-05T18:55:52.240Z,6.70
2023-04-05T18:58:20.744Z,6.73
2023-04-05T19:00:47.968Z,6.70
2023-04-05T19:03:16.432Z,9.63
2023-04-05T19:05:50.559Z,9.07
2023-04-05T19:08:19.733Z,10.37
2023-04-05T19:10:47.082Z,8.60
2023-04-05T19:13:14.366Z,9.70
2023-04-05T19:15:41.643Z,8.20
2023-04-05T19:18:08.964Z,9.57
2023-04-05T19:20:36.216Z,12.10
2023-04-05T19:23:03.486Z,12.07
2023-04-05T19:25:30.851Z,11.20
2023-04-05T19:27:58.222Z,11.83
2023-04-05T19:30:25.661Z,11.80
2023-04-05T19:32:54.561Z,13.63
2023-04-05T19:35:21.922Z,11.43
2023-04-05T19:37:49.120Z,13.73
2023-04-05T19:40:16.398Z,11.30
2023-04-05T19:42:47.816Z,12.50
2023-04-05T19:45:25.388Z,10.33
2023-04-05T19:47:54.063Z,9.43
2023-04-05T19:51:02.571Z,10.07
2023-04-05T19:53:41.584Z,9.90
2023-04-05T19:56:12.341Z,11.40
2023-04-05T19:58:39.941Z,10.80
2023-04-05T20:01:07.590Z,10.63
2023-04-05T20:03:37.374Z,10.20
2023-04-05T20:06:16.684Z,10.23
2023-04-05T20:08:46.004Z,11.63
2023-04-05T20:11:15.660Z,13.03
2023-04-05T20:13:51.050Z,11.13
2023-04-05T20:16:23.068Z,11.33
2023-04-05T20:18:50.548Z,11.10
2023-04-05T20:21:18.928Z,12.20
2023-04-05T20:23:47.803Z,11.20
2023-04-05T20:26:16.879Z,11.97
2023-04-05T20:28:55.039Z,11.53
2023-04-05T20:31:29.466Z,11.43
2023-04-05T20:34:12.493Z,11.30
2023-04-05T20:36:49.071Z,12.10
2023-04-05T20:39:16.758Z,12.43
2023-04-05T20:41:44.637Z,12.47
2023-04-05T20:44:11.996Z,12.10
2023-04-05T20:46:39.200Z,11.00
2023-04-05T20:49:07.049Z,10.90
2023-04-05T20:51:34.772Z,11.03
2023-04-05T20:54:02.137Z,10.73
2023-04-05T20:56:29.438Z,10.17
2023-04-05T20:58:56.898Z,9.93
2023-04-05T21:01:24.180Z,9.73
2023-04-05T21:03:53.216Z,10.40
2023-04-05T21:06:20.556Z,11.63
2023-04-05T21:08:47.837Z,10.73
2023-04-05T21:11:15.303Z,10.33
2023-04-05T21:13:43.269Z,10.70
2023-04-05T21:16:10.872Z,11.13
2023-04-05T21:18:38.151Z,10.73
2023-04-05T21:21:05.623Z,10.93
2023-04-05T21:23:34.234Z,10.50
2023-04-05T21:26:02.454Z,11.30
2023-04-05T21:28:29.798Z,10.93
2023-04-05T21:30:57.006Z,11.10
2023-04-05T21:33:24.473Z,11.60
2023-04-05T21:35:51.838Z,10.67
2023-04-05T21:38:19.174Z,10.93
2023-04-05T21:40:46.451Z,11.13
2023-04-05T21:43:13.694Z,11.03
2023-04-05T21:45:40.910Z,9.97
2023-04-05T21:48:08.151Z,11.00
2023-04-05T21:50:35.547Z,11.07
2023-04-05T21:53:03.092Z,11.80
2023-04-05T21:55:30.406Z,11.10
2023-04-05T21:57:57.596Z,12.63
2023-04-05T22:00:24.964Z,12.60
2023-04-05T22:02:52.294Z,11.97
2023-04-05T22:05:30.131Z,12.57
2023-04-05T22:08:04.372Z,11.93
2023-04-05T22:10:31.702Z,12.33
2023-04-05T22:12:58.903Z,12.43
2023-04-05T22:15:26.252Z,11.70
2023-04-05T22:17:53.522Z,12.20
2023-04-05T22:20:20.731Z,11.43
2023-04-05T22:22:48.035Z,11.37
2023-04-05T22:25:15.480Z,10.97
2023-04-05T22:27:42.750Z,11.13
2023-04-05T22:30:10.956Z,10.87
2023-04-05T22:32:38.455Z,11.43
2023-04-05T22:35:06.338Z,11.03
2023-04-05T22:37:36.398Z,10.80
2023-04-05T22:40:07.266Z,10.33
2023-04-05T22:42:34.630Z,10.73
2023-04-05T22:45:04.602Z,10.57
2023-04-05T22:47:31.859Z,12.13
2023-04-05T22:49:59.123Z,11.17
2023-04-05T22:52:26.450Z,10.53
2023-04-05T22:54:53.764Z,11.57
2023-04-05T22:57:21.155Z,11.27
2023-04-05T22:59:48.398Z,11.07
2023-04-05T23:02:16.021Z,10.70
2023-04-05T23:04:43.279Z,11.10
2023-04-05T23:07:10.519Z,10.13
2023-04-05T23:09:37.790Z,10.80
2023-04-05T23:12:05.291Z,9.37
2023-04-05T23:14:32.490Z,9.43
2023-04-05T23:17:00.998Z,10.00
2023-04-05T23:19:28.300Z,9.77
2023-04-05T23:21:55.675Z,10.07
2023-04-05T23:24:23.032Z,9.53
2023-04-05T23:26:50.335Z,9.37
2023-04-05T23:29:20.679Z,9.17
2023-04-05T23:31:53.113Z,8.90
2023-04-05T23:34:21.007Z,8.77
2023-04-05T23:36:48.194Z,9.43
2023-04-05T23:39:15.639Z,9.87
2023-04-05T23:41:43.149Z,9.43
2023-04-05T23:44:10.425Z,9.03
2023-04-05T23:46:37.721Z,9.63
2023-04-05T23:49:05.057Z,9.13
2023-04-05T23:51:32.558Z,8.53
2023-04-05T23:53:59.743Z,8.73
2023-04-05T23:56:27.114Z,8.77
2023-04-05T23:58:54.414Z,9.00
